createdAt,value
2023-02-16T00:01:23.163Z,20.80
2023-02-16T00:03:53.053Z,20.90
2023-02-16T00:06:22.207Z,20.90
2023-02-16T00:08:53.463Z,20.90
2023-02-16T00:11:48.249Z,20.90
2023-02-16T00:14:17.654Z,20.90
2023-02-16T00:16:46.651Z,21.00
2023-02-16T00:19:41.622Z,21.00
2023-02-16T00:22:12.429Z,21.00
2023-02-16T00:24:41.347Z,21.10
2023-02-16T00:27:19.831Z,21.10
2023-02-16T00:29:48.748Z,21.10
2023-02-16T00:32:17.856Z,21.10
2023-02-16T00:34:46.827Z,21.10
2023-02-16T00:37:16.226Z,21.20
2023-02-16T00:39:46.603Z,21.20
2023-02-16T00:42:28.210Z,21.30
2023-02-16T00:44:59.667Z,21.30
2023-02-16T00:47:39.582Z,21.30
2023-02-16T00:50:33.894Z,21.30
2023-02-16T00:53:06.116Z,21.30
2023-02-16T00:55:37.477Z,21.40
2023-02-16T00:58:16.882Z,21.40
2023-02-16T01:00:57.666Z,21.40
2023-02-16T01:03:31.665Z,21.50
2023-02-16T01:06:18.822Z,21.60
2023-02-16T01:09:06.135Z,21.60
2023-02-16T01:11:35.183Z,21.70
2023-02-16T01:14:04.146Z,21.80
2023-02-16T01:16:43.060Z,21.80
2023-02-16T01:19:15.221Z,21.90
2023-02-16T01:21:44.353Z,22.00
2023-02-16T01:24:13.318Z,22.10
2023-02-16T01:26:45.892Z,22.20
2023-02-16T01:29:23.020Z,22.40
2023-02-16T01:31:52.257Z,22.60
2023-02-16T01:34:21.459Z,22.70
2023-02-16T01:36:51.093Z,22.90
2023-02-16T01:39:21.952Z,23.00
2023-02-16T01:41:57.125Z,23.10
2023-02-16T01:44:29.667Z,23.10
2023-02-16T01:47:17.139Z,23.20
2023-02-16T01:49:46.106Z,23.30
2023-02-16T01:52:44.332Z,23.40
2023-02-16T01:55:21.482Z,23.50
2023-02-16T01:57:59.093Z,23.60
2023-02-16T02:00:50.766Z,23.80
2023-02-16T02:03:56.305Z,23.90
2023-02-16T02:06:37.548Z,24.00
2023-02-16T02:10:08.464Z,24.30
2023-02-16T02:12:59.840Z,24.60
2023-02-16T02:15:32.741Z,24.70
2023-02-16T02:18:02.320Z,24.90
2023-02-16T02:21:15.324Z,25.00
2023-02-16T02:24:07.544Z,25.20
2023-02-16T02:27:00.236Z,25.40
2023-02-16T02:29:53.792Z,25.50
2023-02-16T02:32:43.780Z,25.60
2023-02-16T02:35:50.586Z,25.80
2023-02-16T02:38:22.565Z,25.90
2023-02-16T02:41:17.511Z,26.10
2023-02-16T02:43:56.678Z,26.20
2023-02-16T02:46:32.737Z,26.30
2023-02-16T02:49:01.777Z,26.40
2023-02-16T02:51:30.821Z,26.50
2023-02-16T02:54:22.834Z,26.60
2023-02-16T02:57:32.908Z,26.60
2023-02-16T03:00:44.956Z,26.70
2023-02-16T03:03:33.860Z,26.70
2023-02-16T03:06:15.325Z,26.70
2023-02-16T03:08:49.290Z,26.60
2023-02-16T03:11:41.840Z,26.50
2023-02-16T03:14:43.284Z,26.50
2023-02-16T03:17:37.342Z,26.60
2023-02-16T03:20:27.704Z,26.60
2023-02-16T03:23:16.081Z,26.60
2023-02-16T03:26:04.368Z,26.80
2023-02-16T03:28:54.107Z,27.00
2023-02-16T03:31:29.598Z,27.20
2023-02-16T03:33:58.818Z,27.30
2023-02-16T03:36:31.013Z,27.30
2023-02-16T03:39:01.054Z,27.40
2023-02-16T03:41:34.657Z,27.30
2023-02-16T03:44:03.672Z,27.40
2023-02-16T03:46:33.027Z,27.40
2023-02-16T03:49:01.969Z,27.40
2023-02-16T03:51:30.884Z,27.50
2023-02-16T03:54:00.727Z,27.70
2023-02-16T03:56:29.659Z,27.80
2023-02-16T03:58:58.735Z,28.00
2023-02-16T04:01:28.020Z,28.10
2023-02-16T04:03:56.993Z,28.20
2023-02-16T04:06:26.203Z,28.30
2023-02-16T04:08:55.750Z,28.40
2023-02-16T04:11:42.612Z,28.50
2023-02-16T04:14:11.537Z,28.60
2023-02-16T04:16:40.544Z,28.70
2023-02-16T04:19:09.489Z,28.70
2023-02-16T04:21:38.320Z,28.70
2023-02-16T04:24:07.576Z,28.80
2023-02-16T04:26:36.559Z,28.90
2023-02-16T04:29:05.452Z,29.00
2023-02-16T04:31:34.400Z,29.10
2023-02-16T04:34:03.377Z,29.30
2023-02-16T04:36:32.775Z,29.30
2023-02-16T04:39:01.769Z,29.30
2023-02-16T04:41:30.694Z,29.30
2023-02-16T04:43:59.719Z,29.20
2023-02-16T04:46:28.664Z,29.20
2023-02-16T04:48:57.669Z,29.10
2023-02-16T04:51:26.785Z,29.00
2023-02-16T04:53:55.724Z,29.00
2023-02-16T04:56:24.702Z,28.90
2023-02-16T04:58:53.847Z,28.90
2023-02-16T05:01:25.002Z,28.90
2023-02-16T05:03:54.037Z,29.00
2023-02-16T05:06:23.039Z,29.10
2023-02-16T05:08:51.899Z,29.30
2023-02-16T05:11:38.690Z,29.40
2023-02-16T05:14:26.270Z,29.50
2023-02-16T05:16:55.219Z,29.50
2023-02-16T05:19:24.158Z,29.60
2023-02-16T05:21:53.061Z,29.80
2023-02-16T05:24:21.923Z,29.90
2023-02-16T05:26:50.815Z,30.00
2023-02-16T05:29:19.705Z,30.20
2023-02-16T05:31:49.803Z,30.30
2023-02-16T05:34:18.773Z,30.50
2023-02-16T05:36:47.720Z,30.50
2023-02-16T05:39:16.799Z,30.50
2023-02-16T05:41:45.860Z,30.50
2023-02-16T05:44:14.906Z,30.50
2023-02-16T05:46:44.602Z,30.50
2023-02-16T05:49:14.110Z,30.50
2023-02-16T05:51:43.011Z,30.50
2023-02-16T05:54:18.213Z,30.50
2023-02-16T05:56:49.686Z,30.50
2023-02-16T05:59:19.228Z,30.50
2023-02-16T06:01:51.624Z,30.50
2023-02-16T06:04:22.400Z,30.50
2023-02-16T06:06:51.655Z,30.50
2023-02-16T06:09:20.610Z,30.50
2023-02-16T06:11:49.792Z,30.50
2023-02-16T06:14:20.916Z,30.50
2023-02-16T06:16:52.826Z,30.60
2023-02-16T06:19:22.545Z,30.70
2023-02-16T06:21:51.397Z,30.70
2023-02-16T06:24:20.347Z,30.80
2023-02-16T06:26:49.348Z,31.00
2023-02-16T06:29:18.990Z,31.20
2023-02-16T06:31:48.115Z,31.40
2023-02-16T06:34:17.145Z,31.50
2023-02-16T06:36:46.040Z,31.70
2023-02-16T06:39:14.942Z,31.70
2023-02-16T06:41:43.893Z,31.80
2023-02-16T06:44:15.217Z,31.90
2023-02-16T06:46:46.352Z,31.90
2023-02-16T06:49:20.186Z,31.80
2023-02-16T06:51:50.991Z,31.80
2023-02-16T06:54:20.601Z,31.80
2023-02-16T06:56:49.497Z,31.80
2023-02-16T06:59:18.657Z,31.80
2023-02-16T07:01:48.009Z,31.90
2023-02-16T07:04:16.858Z,31.90
2023-02-16T07:06:45.725Z,32.10
2023-02-16T07:09:14.649Z,32.20
2023-02-16T07:11:43.524Z,32.30
2023-02-16T07:14:12.666Z,32.30
2023-02-16T07:16:41.627Z,32.50
2023-02-16T07:19:10.996Z,32.50
2023-02-16T07:21:39.923Z,32.50
2023-02-16T07:24:09.191Z,32.50
2023-02-16T07:26:40.013Z,32.60
2023-02-16T07:29:09.018Z,32.50
2023-02-16T07:31:37.990Z,32.40
2023-02-16T07:34:07.060Z,32.30
2023-02-16T07:36:36.298Z,32.20
2023-02-16T07:39:05.513Z,32.10
2023-02-16T07:41:34.697Z,32.00
2023-02-16T07:44:03.638Z,32.10
2023-02-16T07:46:33.400Z,32.10
2023-02-16T07:49:02.596Z,32.10
2023-02-16T07:51:33.173Z,32.10
2023-02-16T07:54:03.614Z,32.10
2023-02-16T07:56:34.556Z,32.10
2023-02-16T07:59:04.929Z,32.00
2023-02-16T08:01:35.426Z,32.00
2023-02-16T08:04:04.776Z,32.10
2023-02-16T08:06:35.425Z,32.10
2023-02-16T08:09:04.543Z,32.00
2023-02-16T08:11:33.501Z,31.90
2023-02-16T08:14:02.525Z,31.90
2023-02-16T08:16:31.996Z,31.80
2023-02-16T08:19:02.502Z,31.80
2023-02-16T08:21:34.181Z,31.60
2023-02-16T08:24:08.184Z,31.50
2023-02-16T08:26:40.637Z,31.30
2023-02-16T08:29:19.304Z,31.20
2023-02-16T08:31:49.411Z,31.20
2023-02-16T08:34:20.791Z,31.20
2023-02-16T08:36:54.233Z,31.30
2023-02-16T08:39:24.370Z,31.20
2023-02-16T08:41:54.045Z,31.20
2023-02-16T08:44:25.194Z,31.20
2023-02-16T08:46:56.630Z,31.10
2023-02-16T08:49:26.071Z,31.10
2023-02-16T08:51:57.320Z,31.00
2023-02-16T08:54:31.617Z,31.00
2023-02-16T08:57:03.814Z,31.10
2023-02-16T08:59:34.416Z,31.10
2023-02-16T09:02:03.500Z,31.10
2023-02-16T09:04:32.910Z,31.20
2023-02-16T09:07:01.956Z,31.20
2023-02-16T09:09:31.000Z,31.30
2023-02-16T09:11:59.979Z,31.20
2023-02-16T09:14:29.075Z,31.20
2023-02-16T09:16:59.110Z,31.20
2023-02-16T09:19:29.382Z,31.20
2023-02-16T09:21:58.269Z,31.10
2023-02-16T09:24:27.994Z,31.00
2023-02-16T09:26:56.846Z,31.00
2023-02-16T09:29:25.691Z,30.90
2023-02-16T09:31:56.811Z,30.80
2023-02-16T09:34:27.746Z,30.80
2023-02-16T09:36:56.858Z,30.80
2023-02-16T09:39:25.735Z,30.70
2023-02-16T09:42:22.062Z,30.60
2023-02-16T09:45:17.970Z,30.60
2023-02-16T09:47:49.194Z,30.50
2023-02-16T09:50:50.396Z,30.50
2023-02-16T09:53:30.132Z,30.40
2023-02-16T09:56:28.852Z,30.30
2023-02-16T09:59:31.950Z,30.20
2023-02-16T10:02:52.162Z,30.20
2023-02-16T10:05:34.055Z,30.10
2023-02-16T10:08:15.508Z,30.00
2023-02-16T10:11:33.035Z,29.90
2023-02-16T10:14:09.809Z,29.80
2023-02-16T10:16:44.076Z,29.60
2023-02-16T10:19:47.641Z,29.50
2023-02-16T10:22:22.526Z,29.40
2023-02-16T10:25:16.690Z,29.30
2023-02-16T10:27:48.839Z,29.30
2023-02-16T10:30:23.069Z,29.20
2023-02-16T10:33:09.282Z,29.20
2023-02-16T10:35:38.329Z,29.10
2023-02-16T10:38:23.639Z,29.10
2023-02-16T10:41:01.891Z,29.00
2023-02-16T10:43:49.328Z,29.00
2023-02-16T10:46:26.942Z,28.90
2023-02-16T10:48:57.720Z,28.80
2023-02-16T10:51:32.858Z,28.80
2023-02-16T10:54:08.788Z,28.80
2023-02-16T10:56:43.712Z,28.70
2023-02-16T10:59:25.868Z,28.70
2023-02-16T11:01:58.569Z,28.60
2023-02-16T11:04:45.078Z,28.60
2023-02-16T11:07:19.887Z,28.50
2023-02-16T11:09:56.271Z,28.50
2023-02-16T11:12:45.012Z,28.40
2023-02-16T11:15:20.396Z,28.40
2023-02-16T11:18:05.909Z,28.30
2023-02-16T11:20:46.179Z,28.30
2023-02-16T11:23:40.054Z,28.20
2023-02-16T11:26:11.835Z,28.20
2023-02-16T11:28:45.409Z,28.10
2023-02-16T11:31:19.814Z,28.00
2023-02-16T11:34:06.109Z,28.00
2023-02-16T11:36:46.096Z,27.90
2023-02-16T11:39:21.059Z,27.90
2023-02-16T11:42:05.203Z,27.80
2023-02-16T11:44:33.677Z,27.70
2023-02-16T11:47:10.306Z,27.70
2023-02-16T11:49:44.464Z,27.60
2023-02-16T11:52:33.750Z,27.60
2023-02-16T11:55:04.161Z,27.50
2023-02-16T11:57:37.080Z,27.50
2023-02-16T12:00:20.450Z,27.40
2023-02-16T12:03:04.103Z,27.40
2023-02-16T12:05:46.392Z,27.30
2023-02-16T12:08:38.868Z,27.30
2023-02-16T12:11:08.000Z,27.30
2023-02-16T12:14:08.248Z,27.20
2023-02-16T12:16:58.667Z,27.20
2023-02-16T12:19:41.706Z,27.20
2023-02-16T12:22:17.566Z,27.10
2023-02-16T12:25:14.522Z,27.00
2023-02-16T12:28:02.845Z,27.00
2023-02-16T12:31:01.528Z,27.00
2023-02-16T12:33:41.312Z,26.90
2023-02-16T12:36:43.184Z,26.90
2023-02-16T12:39:21.180Z,26.90
2023-02-16T12:42:14.416Z,26.80
2023-02-16T12:45:01.092Z,26.80
2023-02-16T12:47:42.807Z,26.80
2023-02-16T12:50:32.172Z,26.80
2023-02-16T12:53:16.387Z,26.80
2023-02-16T12:55:50.084Z,26.70
2023-02-16T12:58:32.726Z,26.70
2023-02-16T13:01:22.886Z,26.70
2023-02-16T13:03:51.845Z,26.70
2023-02-16T13:06:38.636Z,26.70
2023-02-16T13:09:17.326Z,26.70
2023-02-16T13:12:02.617Z,26.60
2023-02-16T13:14:38.868Z,26.60
2023-02-16T13:17:19.348Z,26.50
2023-02-16T13:19:49.105Z,26.50
2023-02-16T13:22:29.976Z,26.40
2023-02-16T13:25:04.944Z,26.40
2023-02-16T13:27:58.227Z,26.40
2023-02-16T13:30:36.490Z,26.40
2023-02-16T13:33:26.642Z,26.30
2023-02-16T13:36:12.000Z,26.30
2023-02-16T13:39:02.058Z,26.30
2023-02-16T13:41:40.108Z,26.20
2023-02-16T13:44:17.469Z,26.20
2023-02-16T13:46:51.275Z,26.20
2023-02-16T13:49:45.988Z,26.10
2023-02-16T13:52:36.088Z,26.10
2023-02-16T13:55:11.094Z,26.00
2023-02-16T13:57:53.104Z,26.00
2023-02-16T14:00:36.657Z,26.00
2023-02-16T14:03:34.909Z,25.90
2023-02-16T14:06:38.646Z,25.80
2023-02-16T14:09:20.444Z,25.80
2023-02-16T14:11:58.918Z,25.80
2023-02-16T14:14:54.790Z,25.70
2023-02-16T14:17:26.248Z,25.70
2023-02-16T14:20:07.627Z,25.60
2023-02-16T14:22:51.968Z,25.60
2023-02-16T14:25:28.549Z,25.60
2023-02-16T14:28:23.519Z,25.50
2023-02-16T14:31:00.646Z,25.50
2023-02-16T14:33:56.436Z,25.40
2023-02-16T14:36:28.108Z,25.40
2023-02-16T14:39:02.656Z,25.30
2023-02-16T14:41:35.389Z,25.30
2023-02-16T14:44:07.571Z,25.30
2023-02-16T14:46:42.745Z,25.20
2023-02-16T14:49:45.114Z,25.20
2023-02-16T14:52:41.430Z,25.10
2023-02-16T14:56:00.809Z,25.10
2023-02-16T14:58:53.039Z,25.00
2023-02-16T15:01:22.984Z,25.00
2023-02-16T15:03:57.484Z,25.00
2023-02-16T15:06:45.796Z,24.90
2023-02-16T15:09:25.062Z,24.90
2023-02-16T15:12:13.014Z,24.80
2023-02-16T15:14:55.021Z,24.80
2023-02-16T15:17:47.190Z,24.70
2023-02-16T15:20:16.131Z,24.70
2023-02-16T15:22:55.673Z,24.60
2023-02-16T15:25:30.389Z,24.60
2023-02-16T15:28:21.115Z,24.60
2023-02-16T15:30:52.887Z,24.50
2023-02-16T15:33:24.685Z,24.50
2023-02-16T15:36:00.986Z,24.40
2023-02-16T15:38:35.792Z,24.40
2023-02-16T15:41:08.060Z,24.30
2023-02-16T15:43:48.621Z,24.30
2023-02-16T15:46:29.541Z,24.20
2023-02-16T15:48:59.349Z,24.20
2023-02-16T15:51:35.075Z,24.20
2023-02-16T15:54:14.849Z,24.20
2023-02-16T15:56:55.369Z,24.10
2023-02-16T15:59:39.688Z,24.10
2023-02-16T16:02:26.764Z,24.00
2023-02-16T16:05:02.444Z,24.00
2023-02-16T16:07:34.125Z,23.90
2023-02-16T16:10:05.634Z,23.80
2023-02-16T16:12:34.621Z,23.80
2023-02-16T16:15:05.526Z,23.80
2023-02-16T16:17:40.864Z,23.70
2023-02-16T16:20:31.607Z,23.60
2023-02-16T16:23:30.051Z,23.60
2023-02-16T16:25:59.894Z,23.50
2023-02-16T16:28:28.833Z,23.50
2023-02-16T16:31:16.925Z,23.50
2023-02-16T16:34:03.989Z,23.40
2023-02-16T16:36:36.898Z,23.30
2023-02-16T16:39:28.495Z,23.30
2023-02-16T16:42:22.768Z,23.30
2023-02-16T16:45:06.213Z,23.20
2023-02-16T16:47:40.957Z,23.20
2023-02-16T16:50:15.893Z,23.10
2023-02-16T16:52:47.496Z,23.10
2023-02-16T16:55:26.209Z,23.10
2023-02-16T16:58:01.560Z,23.00
2023-02-16T17:00:35.632Z,22.90
2023-02-16T17:03:05.306Z,22.90
2023-02-16T17:05:35.361Z,22.90
2023-02-16T17:08:04.243Z,22.80
2023-02-16T17:10:33.645Z,22.80
2023-02-16T17:13:03.963Z,22.80
2023-02-16T17:15:52.510Z,22.70
2023-02-16T17:18:23.309Z,22.70
2023-02-16T17:20:52.794Z,22.70
2023-02-16T17:23:23.230Z,22.70
2023-02-16T17:25:52.531Z,22.60
2023-02-16T17:28:22.719Z,22.60
2023-02-16T17:30:51.755Z,22.60
2023-02-16T17:33:21.492Z,22.60
2023-02-16T17:35:50.600Z,22.60
2023-02-16T17:38:22.043Z,22.60
2023-02-16T17:40:53.704Z,22.50
2023-02-16T17:43:23.508Z,22.50
2023-02-16T17:45:53.597Z,22.50
2023-02-16T17:48:28.837Z,22.50
2023-02-16T17:50:59.515Z,22.40
2023-02-16T17:53:29.625Z,22.40
2023-02-16T17:55:59.708Z,22.40
2023-02-16T17:58:28.583Z,22.40
2023-02-16T18:00:57.638Z,22.30
2023-02-16T18:03:26.806Z,22.30
2023-02-16T18:05:55.890Z,22.30
2023-02-16T18:08:25.141Z,22.20
2023-02-16T18:11:02.878Z,22.20
2023-02-16T18:13:32.529Z,22.20
2023-02-16T18:16:05.678Z,22.20
2023-02-16T18:18:40.189Z,22.20
2023-02-16T18:21:09.434Z,22.20
2023-02-16T18:23:38.610Z,22.10
2023-02-16T18:26:08.056Z,22.10
2023-02-16T18:28:37.101Z,22.10
2023-02-16T18:31:09.054Z,22.10
2023-02-16T18:33:38.247Z,22.10
2023-02-16T18:36:07.744Z,22.00
2023-02-16T18:38:37.323Z,22.00
2023-02-16T18:41:06.753Z,22.00
2023-02-16T18:43:38.018Z,22.00
2023-02-16T18:46:09.104Z,22.00
2023-02-16T18:48:38.257Z,21.90
2023-02-16T18:51:09.945Z,21.90
2023-02-16T18:53:39.293Z,21.90
2023-02-16T18:56:10.369Z,21.90
2023-02-16T18:58:39.602Z,21.90
2023-02-16T19:01:34.469Z,21.90
2023-02-16T19:04:04.712Z,21.80
2023-02-16T19:06:34.714Z,21.80
2023-02-16T19:09:03.621Z,21.80
2023-02-16T19:11:33.861Z,21.80
2023-02-16T19:14:02.781Z,21.70
2023-02-16T19:16:31.747Z,21.70
2023-02-16T19:19:00.725Z,21.70
2023-02-16T19:21:29.638Z,21.70
2023-02-16T19:23:58.768Z,21.60
2023-02-16T19:26:28.029Z,21.60
2023-02-16T19:28:57.181Z,21.60
2023-02-16T19:31:32.183Z,21.60
2023-02-16T19:34:01.692Z,21.60
2023-02-16T19:36:33.192Z,21.60
2023-02-16T19:39:05.253Z,21.60
2023-02-16T19:41:38.558Z,21.50
2023-02-16T19:44:07.691Z,21.50
2023-02-16T19:46:36.630Z,21.50
2023-02-16T19:49:05.995Z,21.50
2023-02-16T19:51:35.288Z,21.50
2023-02-16T19:54:04.488Z,21.50
2023-02-16T19:56:33.625Z,21.50
2023-02-16T19:59:02.591Z,21.50
2023-02-16T20:01:31.475Z,21.50
2023-02-16T20:04:01.359Z,21.50
2023-02-16T20:06:33.543Z,21.50
2023-02-16T20:09:03.388Z,21.50
2023-02-16T20:11:32.870Z,21.40
2023-02-16T20:14:02.565Z,21.40
2023-02-16T20:16:31.580Z,21.40
2023-02-16T20:19:00.678Z,21.40
2023-02-16T20:21:31.251Z,21.40
2023-02-16T20:24:03.114Z,21.40
2023-02-16T20:26:44.236Z,21.40
2023-02-16T20:29:17.343Z,21.40
2023-02-16T20:31:57.606Z,21.40
2023-02-16T20:34:28.598Z,21.30
2023-02-16T20:36:57.580Z,21.30
2023-02-16T20:39:26.763Z,21.30
2023-02-16T20:41:55.840Z,21.30
2023-02-16T20:44:24.739Z,21.20
2023-02-16T20:46:54.058Z,21.20
2023-02-16T20:49:23.057Z,21.20
2023-02-16T20:51:51.949Z,21.20
2023-02-16T20:54:20.903Z,21.10
2023-02-16T20:56:49.841Z,21.10
2023-02-16T20:59:18.747Z,21.10
2023-02-16T21:01:51.823Z,21.10
2023-02-16T21:04:21.862Z,21.10
2023-02-16T21:06:51.092Z,21.00
2023-02-16T21:09:20.005Z,21.10
2023-02-16T21:11:49.059Z,21.00
2023-02-16T21:14:18.073Z,21.10
2023-02-16T21:16:47.743Z,21.10
2023-02-16T21:19:22.837Z,21.10
2023-02-16T21:21:53.024Z,21.00
2023-02-16T21:24:22.047Z,21.00
2023-02-16T21:26:50.974Z,21.00
2023-02-16T21:29:19.945Z,21.00
2023-02-16T21:31:48.944Z,21.00
2023-02-16T21:34:17.905Z,21.00
2023-02-16T21:36:46.948Z,21.00
2023-02-16T21:39:15.844Z,21.00
2023-02-16T21:41:44.722Z,21.00
2023-02-16T21:44:19.155Z,21.00
2023-02-16T21:46:49.081Z,21.00
2023-02-16T21:49:20.756Z,20.90
2023-02-16T21:51:50.438Z,20.90
2023-02-16T21:54:40.403Z,21.00
2023-02-16T21:57:09.319Z,20.90
2023-02-16T21:59:38.864Z,20.90
2023-02-16T22:02:07.760Z,20.90
2023-02-16T22:04:36.711Z,20.80
2023-02-16T22:07:05.607Z,20.80
2023-02-16T22:09:34.498Z,20.80
2023-02-16T22:12:03.445Z,20.70
2023-02-16T22:14:34.297Z,20.70
2023-02-16T22:17:04.243Z,20.70
2023-02-16T22:19:33.466Z,20.60
2023-02-16T22:22:02.388Z,20.60
2023-02-16T22:24:31.267Z,20.60
2023-02-16T22:27:00.201Z,20.50
2023-02-16T22:29:29.027Z,20.60
2023-02-16T22:31:57.915Z,20.50
2023-02-16T22:34:26.791Z,20.50
2023-02-16T22:36:55.758Z,20.50
2023-02-16T22:39:24.646Z,20.50
2023-02-16T22:41:53.492Z,20.40
2023-02-16T22:44:22.814Z,20.40
2023-02-16T22:46:51.739Z,20.40
2023-02-16T22:49:20.633Z,20.40
2023-02-16T22:51:49.732Z,20.40
2023-02-16T22:54:18.572Z,20.30
2023-02-16T22:56:47.921Z,20.30
2023-02-16T22:59:16.854Z,20.30
2023-02-16T23:01:45.740Z,20.30
2023-02-16T23:04:18.117Z,20.30
2023-02-16T23:06:47.462Z,20.30
2023-02-16T23:09:22.032Z,20.30
2023-02-16T23:11:51.480Z,20.30
2023-02-16T23:14:22.170Z,20.30
2023-02-16T23:16:55.442Z,20.30
2023-02-16T23:19:26.856Z,20.20
2023-02-16T23:21:56.281Z,20.20
2023-02-16T23:24:26.150Z,20.20
2023-02-16T23:26:55.596Z,20.20
2023-02-16T23:29:24.721Z,20.20
2023-02-16T23:31:54.716Z,20.20
2023-02-16T23:34:23.751Z,20.20
2023-02-16T23:36:52.683Z,20.20
2023-02-16T23:39:21.701Z,20.10
2023-02-16T23:41:50.681Z,20.10
2023-02-16T23:44:19.921Z,20.10
2023-02-16T23:46:48.889Z,20.00
2023-02-16T23:49:17.858Z,20.00
2023-02-16T23:51:46.795Z,20.00
2023-02-16T23:54:15.762Z,19.90
2023-02-16T23:56:44.705Z,19.90
2023-02-16T23:59:13.664Z,19.90
